Francisco Madero, Argentina
Current Conditions -  °F | °C
As of 6:00 AM on Monday 22 Dec 2014 (Local Time) from SAOC Reporting Station
Clear Clear  
Wind Chill: 45°   Ceiling: Unl
Heat Index: 48°   Visibility: 6mi
Dew Point: 32°   Wind: 8mph
Humidity: 54%   Direction: 230°SW
Pressure: 30.09"   Gusts: NA
Location:  35.86°S, 62.3°W
Report Text: SAOC 220900Z 23007KT CAVOK 09/00 Q1019
Loading
Personal Weather Stations






























Interactive Weather Map New forecast layout! Learn more

10-Day Weather Forecast

Advertisements
Track Severe Weather on mobile